Time;durP1;ratioP1;P1;durP2;ratioP2;P2;SDS_P1;SDS_P2;PMS_P1;PMS_P2;Temp;Humidity;BMP_temperature;BMP_pressure;BME280_temperature;BME280_humidity;BME280_pressure;Samples;Min_cycle;Max_cycle;Signal;HPM_P1;HPM_P2
2021/01/13 00:00:27;;;;;;;4.68;1.30;;;2.10;91.10;;;;;;2077603;28;20088;-82
2021/01/13 00:01:29;;;;;;;2.95;1.30;;;2.00;91.10;;;;;;2074600;28;20530;-82
2021/01/13 00:02:30;;;;;;;5.38;1.08;;;2.10;91.20;;;;;;2073642;28;20057;-82
2021/01/13 00:03:30;;;;;;;3.65;1.13;;;2.00;91.20;;;;;;2082230;28;20037;-82
2021/01/13 00:04:31;;;;;;;4.40;1.23;;;2.00;91.20;;;;;;2072645;28;20034;-81
2021/01/13 00:05:31;;;;;;;5.47;1.40;;;2.00;91.20;;;;;;2081269;28;20044;-82
2021/01/13 00:06:33;;;;;;;4.05;1.50;;;2.00;91.20;;;;;;2082575;28;20127;-81
2021/01/13 00:07:33;;;;;;;3.70;1.17;;;2.00;91.20;;;;;;2082508;28;20025;-81
2021/01/13 00:08:34;;;;;;;4.22;1.20;;;1.90;91.20;;;;;;2074268;28;20435;-81
2021/01/13 00:09:35;;;;;;;5.22;1.20;;;1.90;91.20;;;;;;2089407;28;20043;-81
2021/01/13 00:10:35;;;;;;;4.28;1.42;;;2.00;91.50;;;;;;2085398;28;20033;-81
2021/01/13 00:11:36;;;;;;;6.00;1.48;;;1.90;91.30;;;;;;2079702;28;20026;-82
2021/01/13 00:12:37;;;;;;;3.88;1.30;;;1.90;91.30;;;;;;2069495;28;20034;-82
2021/01/13 00:13:38;;;;;;;4.13;1.27;;;1.90;91.50;;;;;;2080145;28;20423;-82
2021/01/13 00:14:39;;;;;;;6.30;1.20;;;1.90;91.30;;;;;;2074890;28;20488;-82
2021/01/13 00:15:40;;;;;;;3.63;1.10;;;1.90;91.30;;;;;;2089289;28;20064;-82
2021/01/13 00:16:40;;;;;;;3.10;1.13;;;1.90;91.30;;;;;;2079888;28;20415;-81
2021/01/13 00:17:46;;;;;;;4.68;1.10;;;1.90;91.30;;;;;;2075346;28;20117;-82
2021/01/13 00:18:49;;;;;;;5.60;1.23;;;1.80;91.30;;;;;;2077668;28;20025;-82
2021/01/13 00:19:49;;;;;;;5.43;1.25;;;1.80;91.30;;;;;;2088167;28;20513;-82
2021/01/13 00:20:50;;;;;;;4.15;1.02;;;1.80;91.30;;;;;;2097293;28;20094;-82
2021/01/13 00:21:54;;;;;;;3.90;1.20;;;1.80;91.30;;;;;;2076886;28;20021;-82
2021/01/13 00:22:55;;;;;;;3.70;1.10;;;1.80;91.40;;;;;;2088516;28;20062;-82
2021/01/13 00:23:56;;;;;;;3.75;1.00;;;1.80;91.40;;;;;;2089636;28;20033;-82
2021/01/13 00:24:57;;;;;;;3.83;1.10;;;1.80;91.40;;;;;;2083928;28;20118;-82
2021/01/13 00:25:58;;;;;;;3.05;1.10;;;1.70;91.40;;;;;;2080420;28;20385;-82
2021/01/13 00:27:02;;;;;;;4.72;1.13;;;1.70;91.70;;;;;;2080329;28;20037;-82
2021/01/13 00:28:03;;;;;;;3.55;1.13;;;1.70;91.40;;;;;;2071604;28;20567;-82
2021/01/13 00:29:04;;;;;;;2.97;1.15;;;1.70;91.40;;;;;;2088863;28;20036;-82
2021/01/13 00:30:05;;;;;;;3.20;1.10;;;1.70;91.40;;;;;;2091974;28;20045;-82
2021/01/13 00:31:06;;;;;;;3.35;1.10;;;1.70;91.40;;;;;;2081175;28;20033;-82
2021/01/13 00:32:07;;;;;;;4.05;1.20;;;1.70;91.50;;;;;;2080058;28;20487;-83
2021/01/13 00:33:07;;;;;;;3.90;1.15;;;1.70;91.50;;;;;;2077012;28;20045;-82
2021/01/13 00:34:15;;;;;;;7.15;1.35;;;1.70;91.50;;;;;;2080644;28;20399;-82
2021/01/13 00:35:17;;;;;;;2.78;1.20;;;1.70;91.50;;;;;;2075202;28;20029;-82
2021/01/13 00:36:21;;;;;;;3.38;1.30;;;1.70;91.50;;;;;;2086244;28;20037;-81
2021/01/13 00:37:21;;;;;;;4.75;1.23;;;1.70;91.50;;;;;;2103916;28;20390;-82
2021/01/13 00:38:22;;;;;;;4.13;1.10;;;1.70;91.50;;;;;;2100049;28;20270;-82
2021/01/13 00:39:23;;;;;;;3.25;1.10;;;1.70;91.50;;;;;;2079872;28;20041;-82
2021/01/13 00:40:23;;;;;;;3.70;1.27;;;1.70;91.50;;;;;;2071819;28;20033;-81
2021/01/13 00:41:24;;;;;;;3.33;1.20;;;1.60;91.50;;;;;;2062707;28;20160;-82
2021/01/13 00:42:25;;;;;;;2.33;0.90;;;1.60;91.50;;;;;;2072304;28;20369;-81
2021/01/13 00:43:25;;;;;;;4.60;1.45;;;1.60;91.50;;;;;;2096474;28;20120;-82
2021/01/13 00:44:26;;;;;;;5.50;1.30;;;1.70;91.50;;;;;;2097083;28;20032;-82
2021/01/13 00:45:27;;;;;;;4.20;1.17;;;1.70;91.50;;;;;;2087807;28;20063;-82
2021/01/13 00:46:35;;;;;;;5.97;1.42;;;1.60;91.50;;;;;;2083914;28;20124;-82
2021/01/13 00:47:36;;;;;;;3.65;1.23;;;1.60;91.50;;;;;;2081174;28;20478;-81
2021/01/13 00:48:37;;;;;;;4.97;1.33;;;1.60;91.50;;;;;;2082609;28;20040;-81
2021/01/13 00:49:37;;;;;;;2.08;1.02;;;1.60;91.50;;;;;;2097600;28;20035;-82
2021/01/13 00:50:38;;;;;;;5.68;1.10;;;1.70;91.50;;;;;;2090484;28;20041;-81
2021/01/13 00:51:43;;;;;;;4.10;1.13;;;1.60;91.50;;;;;;2084841;28;20395;-82
2021/01/13 00:52:48;;;;;;;4.78;1.38;;;1.60;91.50;;;;;;2089593;28;20017;-81
2021/01/13 00:53:48;;;;;;;2.88;1.00;;;1.60;91.50;;;;;;2088873;28;20026;-81
2021/01/13 00:54:49;;;;;;;4.20;1.10;;;1.60;91.50;;;;;;2079980;28;20535;-82
2021/01/13 00:55:49;;;;;;;5.75;1.50;;;1.60;91.50;;;;;;2088049;28;20116;-81
2021/01/13 00:56:50;;;;;;;4.18;1.10;;;1.60;91.50;;;;;;2084895;28;20410;-81
2021/01/13 00:57:51;;;;;;;4.65;1.33;;;1.60;91.50;;;;;;2085732;28;20030;-81
2021/01/13 00:58:52;;;;;;;5.78;1.30;;;1.60;91.80;;;;;;2087015;28;20085;-82
2021/01/13 00:59:52;;;;;;;4.15;1.30;;;1.60;91.60;;;;;;2088575;28;20121;-81
2021/01/13 01:00:53;;;;;;;4.05;1.30;;;1.60;91.60;;;;;;2095247;28;20074;-82
2021/01/13 01:01:54;;;;;;;3.25;1.23;;;1.60;91.60;;;;;;2089105;28;20052;-82
2021/01/13 01:02:54;;;;;;;4.40;1.60;;;1.60;91.60;;;;;;2089628;28;20479;-81
2021/01/13 01:03:56;;;;;;;3.80;1.50;;;1.60;91.60;;;;;;2093169;28;20047;-81
2021/01/13 01:04:56;;;;;;;7.80;1.67;;;1.50;91.60;;;;;;2072314;28;20520;-81
2021/01/13 01:05:57;;;;;;;4.05;1.60;;;1.60;91.70;;;;;;2080384;28;20064;-81
2021/01/13 01:07:02;;;;;;;3.20;1.27;;;1.60;91.70;;;;;;2083654;28;20103;-81
2021/01/13 01:08:03;;;;;;;3.45;1.45;;;1.60;91.70;;;;;;2082960;28;20033;-82
2021/01/13 01:09:05;;;;;;;4.68;1.42;;;1.60;91.70;;;;;;2086062;28;20055;-81
2021/01/13 01:10:08;;;;;;;3.63;1.35;;;1.60;91.70;;;;;;2082740;28;20037;-81
2021/01/13 01:11:08;;;;;;;5.18;1.85;;;1.60;91.70;;;;;;2088198;28;20037;-81
2021/01/13 01:12:09;;;;;;;4.93;1.60;;;1.60;91.60;;;;;;2082567;28;20038;-81
2021/01/13 01:13:10;;;;;;;4.85;1.67;;;1.70;91.70;;;;;;2083853;28;20520;-81
2021/01/13 01:14:11;;;;;;;5.07;1.40;;;1.60;91.60;;;;;;2092206;28;20021;-81
2021/01/13 01:15:13;;;;;;;4.18;1.40;;;1.70;91.60;;;;;;2093527;28;20028;-81
2021/01/13 01:16:16;;;;;;;4.03;1.35;;;1.70;91.60;;;;;;2083959;28;20150;-81
2021/01/13 01:17:16;;;;;;;5.05;1.40;;;1.70;91.60;;;;;;2088905;28;20122;-82
2021/01/13 01:18:17;;;;;;;4.47;1.48;;;1.70;91.60;;;;;;2086185;28;20029;-81
2021/01/13 01:19:18;;;;;;;6.75;1.63;;;1.70;91.50;;;;;;2091668;28;20119;-81
2021/01/13 01:20:18;;;;;;;3.85;1.45;;;1.80;91.50;;;;;;2089171;28;20479;-81
2021/01/13 01:21:19;;;;;;;4.50;1.55;;;1.70;91.50;;;;;;2087818;28;20062;-82
2021/01/13 01:22:20;;;;;;;2.88;1.25;;;1.80;91.60;;;;;;2079534;28;20511;-81
2021/01/13 01:23:20;;;;;;;3.33;1.40;;;1.80;91.50;;;;;;2077375;28;20065;-81
2021/01/13 01:24:21;;;;;;;4.65;1.42;;;1.80;91.40;;;;;;2089726;28;20102;-82
2021/01/13 01:25:22;;;;;;;2.33;1.10;;;1.80;91.40;;;;;;2102422;28;20028;-82
2021/01/13 01:26:23;;;;;;;3.97;1.15;;;1.80;91.50;;;;;;2087261;28;20124;-81
2021/01/13 01:27:24;;;;;;;3.33;1.23;;;1.90;91.50;;;;;;2081170;28;20030;-81
2021/01/13 01:28:24;;;;;;;2.88;1.20;;;1.80;91.50;;;;;;2088282;28;20067;-81
2021/01/13 01:29:25;;;;;;;2.58;0.88;;;1.80;91.50;;;;;;2088001;28;20025;-81
2021/01/13 01:30:28;;;;;;;4.53;0.90;;;1.80;91.50;;;;;;2075947;28;20404;-81
2021/01/13 01:31:28;;;;;;;3.55;1.15;;;1.90;91.50;;;;;;2085358;28;20115;-81
2021/01/13 01:32:29;;;;;;;4.13;0.90;;;1.90;91.50;;;;;;2088088;28;20372;-82
2021/01/13 01:33:29;;;;;;;3.67;0.85;;;1.90;91.50;;;;;;2088497;28;20032;-81
2021/01/13 01:34:30;;;;;;;5.47;1.35;;;1.90;91.50;;;;;;2087336;28;20515;-81
2021/01/13 01:35:31;;;;;;;3.28;1.00;;;1.90;91.50;;;;;;2088530;28;20499;-82
2021/01/13 01:36:31;;;;;;;2.92;0.70;;;1.90;91.50;;;;;;2082529;28;20037;-83
2021/01/13 01:37:35;;;;;;;3.05;0.80;;;1.90;91.50;;;;;;2078209;28;20075;-82
2021/01/13 01:38:36;;;;;;;3.58;0.80;;;2.00;91.50;;;;;;2079388;28;20026;-82
2021/01/13 01:39:37;;;;;;;3.47;0.60;;;2.00;91.50;;;;;;2074895;28;20471;-82
2021/01/13 01:40:38;;;;;;;5.95;0.82;;;2.00;91.50;;;;;;2082937;28;20041;-82
2021/01/13 01:41:42;;;;;;;2.40;0.60;;;2.00;91.40;;;;;;2082564;28;20034;-82
2021/01/13 01:42:53;;;;;;;3.38;0.70;;;2.00;91.40;;;;;;2084801;28;20022;-81
2021/01/13 01:43:54;;;;;;;3.47;0.70;;;2.10;91.40;;;;;;2084203;28;20025;-82
2021/01/13 01:44:55;;;;;;;2.22;0.40;;;2.10;91.40;;;;;;2084811;28;20387;-83
2021/01/13 01:45:56;;;;;;;2.10;0.50;;;2.10;91.40;;;;;;2088342;28;20026;-82
2021/01/13 01:47:03;;;;;;;2.47;0.50;;;2.10;91.40;;;;;;2099338;28;20025;-82
2021/01/13 01:48:10;;;;;;;2.75;0.60;;;2.10;91.40;;;;;;2090989;28;20427;-82
2021/01/13 01:49:14;;;;;;;2.83;0.70;;;2.20;91.30;;;;;;2090112;28;20297;-82
2021/01/13 01:50:15;;;;;;;2.58;0.60;;;2.10;91.30;;;;;;2089680;28;20033;-82
2021/01/13 01:51:24;;;;;;;1.75;0.60;;;2.20;91.30;;;;;;2092497;28;20033;-82
2021/01/13 01:52:26;;;;;;;2.20;0.40;;;2.20;91.30;;;;;;2090241;28;20167;-82
2021/01/13 01:53:48;;;;;;;2.05;0.50;;;2.20;91.30;;;;;;2088227;28;20021;-82
2021/01/13 01:55:01;;;;;;;2.22;0.40;;;2.20;91.30;;;;;;2079290;28;20475;-83
2021/01/13 01:56:10;;;;;;;2.53;0.40;;;2.20;91.20;;;;;;2089229;28;20028;-81
2021/01/13 01:57:15;;;;;;;1.40;0.50;;;2.20;91.20;;;;;;2088094;28;20035;-82
2021/01/13 01:58:25;;;;;;;1.95;0.50;;;2.20;91.20;;;;;;2081224;28;20091;-81
2021/01/13 01:59:37;;;;;;;1.65;0.60;;;2.20;91.20;;;;;;2082909;28;20112;-82
2021/01/13 02:00:38;;;;;;;3.38;0.88;;;2.20;91.20;;;;;;2087153;28;20025;-82
2021/01/13 02:01:46;;;;;;;2.20;0.50;;;2.20;91.20;;;;;;2087373;28;20056;-82
2021/01/13 02:02:55;;;;;;;3.80;0.45;;;2.20;91.20;;;;;;2087485;28;20513;-82
2021/01/13 02:04:09;;;;;;;3.00;0.50;;;2.20;91.20;;;;;;2084095;28;20027;-82
2021/01/13 02:05:11;;;;;;;2.38;0.40;;;2.10;91.20;;;;;;2086930;28;20032;-82
2021/01/13 02:06:16;;;;;;;1.83;0.40;;;2.10;91.20;;;;;;2086439;28;20554;-81
2021/01/13 02:07:27;;;;;;;2.70;0.57;;;2.10;91.20;;;;;;2085048;28;20128;-82
2021/01/13 02:08:36;;;;;;;2.83;0.52;;;2.10;91.20;;;;;;2099038;28;20599;-82
2021/01/13 02:09:37;;;;;;;1.63;0.40;;;2.10;91.20;;;;;;2095294;28;20016;-82
2021/01/13 02:10:41;;;;;;;2.67;0.50;;;2.00;91.20;;;;;;2095842;28;20041;-82
2021/01/13 02:11:50;;;;;;;4.13;0.47;;;2.00;91.20;;;;;;2096895;28;20024;-81
2021/01/13 02:13:01;;;;;;;3.33;0.40;;;2.00;91.30;;;;;;2085355;28;20047;-82
2021/01/13 02:14:01;;;;;;;2.97;0.60;;;2.00;91.60;;;;;;2079342;28;20740;-82
2021/01/13 02:15:05;;;;;;;5.28;0.60;;;2.00;91.30;;;;;;2081010;28;20029;-82
2021/01/13 02:16:07;;;;;;;2.75;0.50;;;1.90;91.30;;;;;;2081232;28;20038;-82
2021/01/13 02:17:09;;;;;;;2.78;0.47;;;1.90;91.40;;;;;;2082625;28;20676;-82
2021/01/13 02:18:11;;;;;;;2.97;0.60;;;1.90;91.40;;;;;;2080535;28;20029;-82
2021/01/13 02:19:27;;;;;;;1.83;0.40;;;1.90;91.40;;;;;;2087747;28;20017;-81
2021/01/13 02:20:30;;;;;;;2.55;0.40;;;1.90;91.50;;;;;;2080528;28;20240;-81
2021/01/13 02:21:35;;;;;;;2.15;0.38;;;1.90;91.50;;;;;;2081721;28;20040;-82
2021/01/13 02:22:56;;;;;;;3.05;0.50;;;1.90;91.50;;;;;;2092481;28;20071;-81
2021/01/13 02:24:19;;;;;;;2.65;0.47;;;1.90;91.50;;;;;;2088611;28;20381;-82
2021/01/13 02:25:31;;;;;;;3.25;0.60;;;1.90;91.50;;;;;;2083267;28;20025;-81
2021/01/13 02:26:59;;;;;;;2.25;0.40;;;1.90;91.50;;;;;;2081659;28;20123;-81
2021/01/13 02:28:04;;;;;;;2.25;0.50;;;1.90;91.50;;;;;;2081690;28;20044;-81
2021/01/13 02:29:34;;;;;;;1.95;0.50;;;1.90;91.50;;;;;;2096334;28;20075;-82
2021/01/13 02:30:39;;;;;;;2.15;0.52;;;1.90;91.50;;;;;;2084723;28;20095;-81
2021/01/13 02:31:42;;;;;;;1.48;0.30;;;1.90;91.40;;;;;;2082710;28;20029;-82
2021/01/13 02:32:49;;;;;;;1.00;0.30;;;1.90;91.50;;;;;;2078246;28;20054;-82
2021/01/13 02:34:38;;;;;;;1.27;0.35;;;1.90;91.50;;;;;;2083153;28;20524;-81
2021/01/13 02:35:54;;;;;;;1.73;0.40;;;1.90;91.50;;;;;;2078193;28;20215;-81
2021/01/13 02:37:31;;;;;;;4.70;0.50;;;1.90;91.50;;;;;;2071812;28;20026;-82
2021/01/13 02:38:33;;;;;;;1.13;0.40;;;1.90;91.50;;;;;;2077736;28;20079;-81
2021/01/13 02:39:36;;;;;;;2.90;0.50;;;1.90;91.50;;;;;;2080922;28;20112;-82
2021/01/13 02:40:37;;;;;;;1.85;0.40;;;1.90;91.50;;;;;;2081457;28;20026;-81
2021/01/13 02:41:43;;;;;;;2.50;0.43;;;1.90;91.50;;;;;;2083497;28;20470;-81
2021/01/13 02:43:08;;;;;;;2.97;0.60;;;1.90;91.50;;;;;;2087479;28;20092;-81
2021/01/13 02:44:09;;;;;;;1.55;0.40;;;1.90;91.50;;;;;;2092769;28;20060;-81
2021/01/13 02:45:13;;;;;;;3.80;0.50;;;1.90;91.50;;;;;;2084427;28;20028;-81
2021/01/13 02:46:28;;;;;;;3.33;0.57;;;1.90;91.50;;;;;;2073879;28;20037;-81
2021/01/13 02:47:52;;;;;;;3.47;0.65;;;1.90;91.50;;;;;;2088728;28;20059;-81
2021/01/13 02:48:57;;;;;;;1.75;0.50;;;2.00;91.50;;;;;;2088437;28;20030;-82
2021/01/13 02:49:59;;;;;;;4.25;0.60;;;2.00;91.50;;;;;;2092090;28;20473;-81
2021/01/13 02:51:00;;;;;;;2.83;0.50;;;2.00;91.40;;;;;;2087289;28;20037;-82
2021/01/13 02:52:14;;;;;;;2.88;0.50;;;2.00;91.40;;;;;;2078534;28;20029;-82
2021/01/13 02:53:15;;;;;;;4.00;0.80;;;2.00;91.50;;;;;;2079962;28;20777;-82
2021/01/13 02:54:29;;;;;;;4.32;0.57;;;2.00;91.50;;;;;;2081805;28;20121;-82
2021/01/13 02:55:34;;;;;;;3.75;0.50;;;2.00;91.40;;;;;;2082585;28;20029;-82
2021/01/13 02:56:43;;;;;;;3.30;0.50;;;2.10;91.50;;;;;;2091058;28;20092;-82
2021/01/13 02:57:51;;;;;;;2.88;0.50;;;2.00;91.40;;;;;;2094856;28;20495;-82
2021/01/13 02:59:04;;;;;;;3.03;0.60;;;2.10;91.70;;;;;;2089213;28;20024;-82
2021/01/13 03:00:07;;;;;;;3.38;0.60;;;2.10;91.40;;;;;;2097647;28;20120;-82
2021/01/13 03:01:09;;;;;;;2.25;0.80;;;2.10;91.40;;;;;;2104631;28;20054;-82
2021/01/13 03:02:11;;;;;;;5.30;0.82;;;2.10;91.40;;;;;;2098061;28;20421;-82
2021/01/13 03:03:14;;;;;;;4.10;0.60;;;2.10;91.40;;;;;;2087397;28;20116;-82
2021/01/13 03:04:16;;;;;;;2.80;0.60;;;2.00;91.40;;;;;;2073003;28;20092;-82
2021/01/13 03:05:17;;;;;;;3.28;0.80;;;2.00;91.40;;;;;;2081880;28;21593;-82
2021/01/13 03:06:22;;;;;;;2.50;0.70;;;2.00;91.40;;;;;;2089116;28;20039;-82
2021/01/13 03:07:26;;;;;;;4.38;0.75;;;2.00;91.50;;;;;;2085643;28;20021;-82
2021/01/13 03:08:41;;;;;;;3.33;0.63;;;2.00;91.50;;;;;;2083934;28;20064;-82
2021/01/13 03:09:47;;;;;;;3.05;0.50;;;2.00;91.50;;;;;;2092891;28;20013;-82
2021/01/13 03:10:48;;;;;;;1.40;0.52;;;2.00;91.50;;;;;;2093425;28;20486;-82
2021/01/13 03:11:49;;;;;;;4.50;0.80;;;2.00;91.50;;;;;;2087948;28;20053;-82
2021/01/13 03:12:52;;;;;;;3.88;0.80;;;2.00;91.60;;;;;;2076718;28;20412;-82
2021/01/13 03:13:56;;;;;;;2.40;0.65;;;2.00;91.60;;;;;;2088800;28;20033;-82
2021/01/13 03:14:58;;;;;;;3.15;0.70;;;2.00;91.60;;;;;;2094985;28;20021;-82
2021/01/13 03:15:59;;;;;;;2.72;0.60;;;1.90;91.60;;;;;;2090096;28;20032;-81
2021/01/13 03:17:09;;;;;;;3.25;0.70;;;1.90;91.60;;;;;;2086375;28;20029;-82
2021/01/13 03:18:16;;;;;;;;;;;1.90;91.60;;;;;;2078975;28;20061;-81
2021/01/13 03:19:25;;;;;;;2.13;0.70;;;1.90;91.60;;;;;;2095075;28;19916;-82
2021/01/13 03:20:46;;;;;;;3.65;0.80;;;1.90;91.60;;;;;;2097403;28;20048;-81
2021/01/13 03:21:58;;;;;;;2.80;0.70;;;1.90;91.50;;;;;;2085725;28;20017;-82
2021/01/13 03:23:19;;;;;;;2.70;0.60;;;1.90;91.50;;;;;;2082298;28;20025;-81
2021/01/13 03:24:42;;;;;;;;;;;1.90;91.60;;;;;;2077131;28;20030;-81
2021/01/13 03:26:03;;;;;;;3.10;0.57;;;1.90;91.80;;;;;;2096134;28;19913;-80
2021/01/13 03:27:06;;;;;;;4.75;0.60;;;1.90;91.50;;;;;;2085741;28;20148;-81
2021/01/13 03:28:09;;;;;;;1.60;0.60;;;1.90;91.50;;;;;;2077430;28;20022;-81
2021/01/13 03:29:13;;;;;;;3.15;0.90;;;1.90;91.50;;;;;;2106749;28;20021;-82
2021/01/13 03:30:17;;;;;;;1.50;0.68;;;1.90;91.50;;;;;;2103031;28;20119;-82
2021/01/13 03:31:25;;;;;;;2.63;0.77;;;1.80;91.50;;;;;;2092326;28;20116;-80
2021/01/13 03:32:32;;;;;;;4.32;0.70;;;1.90;91.60;;;;;;2089259;28;20036;-81
2021/01/13 03:34:07;;;;;;;3.72;0.80;;;1.90;91.60;;;;;;2096531;28;20020;-81
2021/01/13 03:35:15;;;;;;;4.50;0.80;;;1.90;91.60;;;;;;2087066;28;20033;-81
2021/01/13 03:36:28;;;;;;;3.72;1.00;;;1.90;91.50;;;;;;2072384;28;20152;-81
2021/01/13 03:37:39;;;;;;;3.72;0.90;;;2.00;91.60;;;;;;2082634;28;20032;-81
2021/01/13 03:39:05;;;;;;;3.97;0.90;;;2.00;91.50;;;;;;2086303;28;20025;-81
2021/01/13 03:40:06;;;;;;;3.20;0.75;;;2.00;91.50;;;;;;2086511;28;20032;-82
2021/01/13 03:41:07;;;;;;;4.35;1.35;;;2.00;91.50;;;;;;2084913;28;20120;-81
2021/01/13 03:42:15;;;;;;;5.30;0.82;;;2.00;91.50;;;;;;2085781;28;20497;-81
2021/01/13 03:43:20;;;;;;;5.07;0.98;;;2.00;91.50;;;;;;2089210;28;20027;-82
2021/01/13 03:44:25;;;;;;;2.03;0.60;;;2.00;91.50;;;;;;2084881;28;20023;-81
2021/01/13 03:45:36;;;;;;;5.25;0.80;;;2.00;91.50;;;;;;2088456;28;20490;-81
2021/01/13 03:46:37;;;;;;;3.90;0.90;;;2.00;91.50;;;;;;2097945;28;20048;-82
2021/01/13 03:48:00;;;;;;;3.72;0.70;;;2.00;91.50;;;;;;2099085;28;20493;-81
2021/01/13 03:49:03;;;;;;;6.03;0.90;;;2.00;91.50;;;;;;2102687;28;20024;-82
2021/01/13 03:50:12;;;;;;;6.70;0.90;;;2.10;91.60;;;;;;2102647;28;20117;-82
2021/01/13 03:51:25;;;;;;;5.47;0.70;;;2.10;91.60;;;;;;2098110;28;20033;-82
2021/01/13 03:52:32;;;;;;;2.85;0.60;;;2.10;91.60;;;;;;2088042;28;20494;-82
2021/01/13 03:53:40;;;;;;;6.43;0.68;;;2.20;91.60;;;;;;2080492;28;20044;-82
2021/01/13 03:54:43;;;;;;;2.92;0.80;;;2.20;91.50;;;;;;2084043;28;20021;-82
2021/01/13 03:55:44;;;;;;;2.30;0.57;;;2.30;91.50;;;;;;2093160;28;20032;-83
2021/01/13 03:56:58;;;;;;;3.20;0.73;;;2.30;91.40;;;;;;2097120;28;20029;-82
2021/01/13 03:58:07;;;;;;;4.15;0.80;;;2.40;91.40;;;;;;2088951;28;20021;-82
2021/01/13 03:59:18;;;;;;;3.72;0.68;;;2.40;91.40;;;;;;2086426;28;20128;-82
2021/01/13 04:00:21;;;;;;;2.10;0.68;;;2.40;91.40;;;;;;2083017;28;20100;-82
2021/01/13 04:01:22;;;;;;;1.88;0.40;;;2.50;91.30;;;;;;2085683;28;20117;-82
2021/01/13 04:02:29;;;;;;;1.98;0.47;;;2.50;91.30;;;;;;2077386;28;20566;-82
2021/01/13 04:03:31;;;;;;;3.88;0.73;;;2.50;91.30;;;;;;2075660;28;20022;-82
2021/01/13 04:04:41;;;;;;;2.47;0.45;;;2.60;91.30;;;;;;2087252;28;20025;-82
2021/01/13 04:05:51;;;;;;;3.72;0.70;;;2.60;91.30;;;;;;2082219;28;20106;-82
2021/01/13 04:06:59;;;;;;;4.15;0.57;;;2.60;91.30;;;;;;2079990;28;20049;-82
2021/01/13 04:08:02;;;;;;;3.10;0.43;;;2.60;91.20;;;;;;2082700;28;20419;-83
2021/01/13 04:09:05;;;;;;;2.05;0.30;;;2.70;91.20;;;;;;2095849;28;20028;-82
2021/01/13 04:10:11;;;;;;;5.43;0.63;;;2.70;91.20;;;;;;2095092;28;20037;-82
2021/01/13 04:11:13;;;;;;;1.90;0.40;;;2.70;91.20;;;;;;2093933;28;20054;-83
2021/01/13 04:12:21;;;;;;;3.80;1.00;;;2.80;91.20;;;;;;2081077;28;20410;-82
2021/01/13 04:13:36;;;;;;;3.35;0.65;;;2.80;91.20;;;;;;2091493;28;20033;-82
2021/01/13 04:14:46;;;;;;;1.92;0.50;;;2.80;91.20;;;;;;2091793;28;20056;-82
2021/01/13 04:15:50;;;;;;;2.90;0.40;;;2.80;91.20;;;;;;2082235;28;20124;-82
2021/01/13 04:16:54;;;;;;;2.50;0.52;;;2.90;91.20;;;;;;2083677;28;20033;-83
2021/01/13 04:17:54;;;;;;;5.93;0.80;;;2.90;91.20;;;;;;2089216;28;20028;-82
2021/01/13 04:18:55;;;;;;;7.07;0.75;;;2.90;91.20;;;;;;2089698;28;20021;-83
2021/01/13 04:19:56;;;;;;;2.00;0.60;;;2.90;91.20;;;;;;2087515;28;20120;-83
2021/01/13 04:20:57;;;;;;;0.80;0.25;;;2.90;91.20;;;;;;2081380;28;20036;-82
2021/01/13 04:22:03;;;;;;;2.83;0.60;;;2.90;91.20;;;;;;2094203;28;20025;-82
2021/01/13 04:23:05;;;;;;;3.28;0.60;;;2.90;91.20;;;;;;2088976;28;20021;-83
2021/01/13 04:24:06;;;;;;;4.10;0.40;;;3.00;91.20;;;;;;2088867;28;20131;-82
2021/01/13 04:25:07;;;;;;;3.80;0.50;;;3.00;91.20;;;;;;2081122;28;20092;-82
2021/01/13 04:26:12;;;;;;;2.67;0.50;;;3.00;91.20;;;;;;2087949;28;20039;-82
2021/01/13 04:27:18;;;;;;;4.07;0.63;;;3.00;91.20;;;;;;2073480;28;20033;-82
2021/01/13 04:28:19;;;;;;;2.35;0.40;;;3.00;91.20;;;;;;2073778;28;20029;-82
2021/01/13 04:29:23;;;;;;;5.35;0.50;;;3.00;91.20;;;;;;2079430;28;20040;-82
2021/01/13 04:30:26;;;;;;;4.55;0.50;;;3.00;91.20;;;;;;2081923;28;20045;-82
2021/01/13 04:31:27;;;;;;;2.70;0.60;;;2.90;91.20;;;;;;2088861;28;20021;-81
2021/01/13 04:32:28;;;;;;;3.38;0.47;;;3.00;91.30;;;;;;2081638;28;20076;-81
2021/01/13 04:33:29;;;;;;;4.35;0.60;;;3.00;91.30;;;;;;2085118;28;20037;-82
2021/01/13 04:34:31;;;;;;;3.22;0.50;;;3.00;91.30;;;;;;2072738;28;20088;-82
2021/01/13 04:35:31;;;;;;;4.82;1.05;;;3.00;91.30;;;;;;2078710;28;22090;-82
2021/01/13 04:36:35;;;;;;;2.10;0.60;;;3.00;91.30;;;;;;2095603;28;20102;-81
2021/01/13 04:37:36;;;;;;;2.17;0.50;;;3.00;91.40;;;;;;2092397;28;20033;-82
2021/01/13 04:38:37;;;;;;;3.53;0.70;;;3.00;91.40;;;;;;2092296;28;20036;-82
2021/01/13 04:39:38;;;;;;;1.52;0.40;;;3.00;91.40;;;;;;2095232;28;20020;-82
2021/01/13 04:40:40;;;;;;;2.55;0.63;;;3.00;91.40;;;;;;2085990;28;20124;-82
2021/01/13 04:42:05;;;;;;;4.45;0.60;;;3.00;91.40;;;;;;2084533;28;20128;-82
2021/01/13 04:43:07;;;;;;;1.55;0.40;;;3.00;91.40;;;;;;2081577;28;20028;-82
2021/01/13 04:44:18;;;;;;;2.72;0.32;;;3.00;91.40;;;;;;2086110;28;20059;-81
2021/01/13 04:45:36;;;;;;;3.33;0.32;;;3.00;91.40;;;;;;2077122;28;20029;-82
2021/01/13 04:46:39;;;;;;;2.15;0.30;;;3.00;91.40;;;;;;2077948;28;20021;-82
2021/01/13 04:47:50;;;;;;;2.10;0.40;;;3.00;91.40;;;;;;2074845;28;20512;-82
2021/01/13 04:49:06;;;;;;;3.60;0.32;;;3.00;91.40;;;;;;2087819;28;20442;-82
2021/01/13 04:50:11;;;;;;;2.28;0.30;;;3.00;91.40;;;;;;2080851;28;20453;-82
2021/01/13 04:51:15;;;;;;;2.40;0.47;;;3.00;91.40;;;;;;2065754;28;20038;-81
2021/01/13 04:52:28;;;;;;;4.22;0.60;;;3.00;91.50;;;;;;2088591;28;20564;-82
2021/01/13 04:53:34;;;;;;;2.35;0.40;;;3.00;91.50;;;;;;2094788;28;20485;-81
2021/01/13 04:54:39;;;;;;;2.67;0.40;;;3.00;91.50;;;;;;2082594;28;20025;-82
2021/01/13 04:55:59;;;;;;;3.30;0.40;;;3.00;91.50;;;;;;2088947;28;20032;-82
2021/01/13 04:57:11;;;;;;;2.88;0.30;;;3.00;91.50;;;;;;2085500;28;20025;-81
2021/01/13 04:58:21;;;;;;;2.72;0.43;;;2.90;91.50;;;;;;2086734;28;20052;-81
2021/01/13 04:59:27;;;;;;;1.33;0.40;;;3.00;91.50;;;;;;2086659;28;20112;-81
2021/01/13 05:00:59;;;;;;;3.00;0.40;;;3.00;91.60;;;;;;2085306;28;20029;-81
2021/01/13 05:02:11;;;;;;;3.45;0.50;;;3.00;91.60;;;;;;2077839;28;20025;-81
2021/01/13 05:03:40;;;;;;;2.50;0.38;;;2.90;91.50;;;;;;2079588;28;20072;-81
2021/01/13 05:04:53;;;;;;;2.25;0.35;;;3.00;91.60;;;;;;2085914;28;20108;-81
2021/01/13 05:06:13;;;;;;;1.67;0.30;;;3.00;91.60;;;;;;2086573;28;20025;-81
2021/01/13 05:07:22;;;;;;;3.95;0.50;;;3.00;91.60;;;;;;2079924;28;20037;-82
2021/01/13 05:08:27;;;;;;;1.13;0.30;;;2.90;91.60;;;;;;2074797;28;20037;-82
2021/01/13 05:09:43;;;;;;;2.40;0.32;;;2.90;91.60;;;;;;2081062;28;20065;-82
2021/01/13 05:10:50;;;;;;;2.92;0.47;;;2.90;91.60;;;;;;2088261;28;20533;-81
2021/01/13 05:11:51;;;;;;;2.80;0.38;;;2.90;91.70;;;;;;2088572;28;20560;-82
2021/01/13 05:12:58;;;;;;;3.20;0.52;;;2.90;91.70;;;;;;2095303;28;20082;-81
2021/01/13 05:14:01;;;;;;;2.38;0.45;;;2.80;91.70;;;;;;2082800;28;20017;-81
2021/01/13 05:15:03;;;;;;;2.22;0.40;;;2.90;91.80;;;;;;2093807;28;20044;-82
2021/01/13 05:16:12;;;;;;;3.35;0.50;;;2.80;91.80;;;;;;2097042;28;20077;-81
2021/01/13 05:17:33;;;;;;;2.58;0.38;;;2.80;91.80;;;;;;2084445;28;20539;-82
2021/01/13 05:18:49;;;;;;;3.88;0.50;;;2.80;91.90;;;;;;2086001;28;20018;-81
2021/01/13 05:20:07;;;;;;;1.20;0.20;;;2.80;91.90;;;;;;2081571;28;20026;-81
2021/01/13 05:21:17;;;;;;;2.90;0.43;;;2.70;91.90;;;;;;2088070;28;20033;-81
2021/01/13 05:22:18;;;;;;;1.55;0.43;;;2.70;91.90;;;;;;2085040;28;20025;-81
2021/01/13 05:23:21;;;;;;;2.55;0.40;;;2.70;91.90;;;;;;2085493;28;20402;-81
2021/01/13 05:24:24;;;;;;;2.22;0.38;;;2.70;91.90;;;;;;2087978;28;20025;-81
2021/01/13 05:25:46;;;;;;;2.33;0.45;;;2.60;92.00;;;;;;2067217;28;20080;-81
2021/01/13 05:26:59;;;;;;;3.10;0.60;;;2.70;92.00;;;;;;2075959;28;20033;-81
2021/01/13 05:28:17;;;;;;;2.28;0.60;;;2.60;92.00;;;;;;2081399;28;20094;-81
2021/01/13 05:29:38;;;;;;;2.13;0.40;;;2.60;92.00;;;;;;2084980;28;20021;-81
2021/01/13 05:30:46;;;;;;;1.50;0.30;;;2.60;92.10;;;;;;2085510;28;20044;-81
2021/01/13 05:31:50;;;;;;;2.03;0.43;;;2.60;92.10;;;;;;2083455;28;20730;-81
2021/01/13 05:32:56;;;;;;;4.32;0.50;;;2.60;92.10;;;;;;2082257;28;20090;-81
2021/01/13 05:33:58;;;;;;;1.45;0.30;;;2.60;92.10;;;;;;2094816;28;20089;-81
2021/01/13 05:35:03;;;;;;;3.45;0.50;;;2.50;92.10;;;;;;2087590;28;20028;-81
2021/01/13 05:36:05;;;;;;;0.65;0.22;;;2.50;92.10;;;;;;2079273;28;20033;-82
2021/01/13 05:37:18;;;;;;;2.22;0.40;;;2.50;92.10;;;;;;2088660;28;20033;-81
2021/01/13 05:38:55;;;;;;;2.25;0.50;;;2.50;92.20;;;;;;2097549;28;20031;-81
2021/01/13 05:39:56;;;;;;;2.53;0.50;;;2.50;92.20;;;;;;2092006;28;20630;-81
2021/01/13 05:40:57;;;;;;;2.75;0.35;;;2.50;92.20;;;;;;2082494;28;20056;-81
2021/01/13 05:42:01;;;;;;;2.80;0.50;;;2.50;92.20;;;;;;2072501;28;20034;-81
2021/01/13 05:43:03;;;;;;;4.13;0.70;;;2.40;92.20;;;;;;2088263;28;20029;-81
2021/01/13 05:44:04;;;;;;;1.77;0.40;;;2.40;92.20;;;;;;2092514;28;20036;-81
2021/01/13 05:45:06;;;;;;;2.00;0.50;;;2.40;92.20;;;;;;2081023;28;20506;-81
2021/01/13 05:46:11;;;;;;;1.98;0.40;;;2.40;92.30;;;;;;2072710;28;20045;-81
2021/01/13 05:47:30;;;;;;;2.17;0.60;;;2.40;92.30;;;;;;2092666;28;20525;-81
2021/01/13 05:48:39;;;;;;;2.97;0.45;;;2.40;92.30;;;;;;2090192;28;20027;-81